sensor_id;sensor_type;location;lat;lon;timestamp;pressure;altitude;pressure_sealevel;temperature;humidity
59411;BME280;45215;32.610;-115.482;2022-07-29T00:01:42;100467.63;;;21.69;36.14
59411;BME280;45215;32.610;-115.482;2022-07-29T00:04:08;100457.97;;;22.03;42.93
59411;BME280;45215;32.610;-115.482;2022-07-29T00:06:34;100459.31;;;22.14;38.00
59411;BME280;45215;32.610;-115.482;2022-07-29T00:09:00;100463.34;;;21.96;35.75
59411;BME280;45215;32.610;-115.482;2022-07-29T00:11:26;100456.03;;;21.75;34.63
59411;BME280;45215;32.610;-115.482;2022-07-29T00:13:51;100457.25;;;21.88;40.72
59411;BME280;45215;32.610;-115.482;2022-07-29T00:16:17;100459.75;;;22.17;40.24
59411;BME280;45215;32.610;-115.482;2022-07-29T00:18:43;100464.28;;;22.10;36.97
59411;BME280;45215;32.610;-115.482;2022-07-29T00:21:09;100463.72;;;21.93;35.58
59411;BME280;45215;32.610;-115.482;2022-07-29T00:23:34;100463.13;;;21.76;34.50
59411;BME280;45215;32.610;-115.482;2022-07-29T00:26:01;100461.66;;;21.95;41.46
59411;BME280;45215;32.610;-115.482;2022-07-29T00:28:26;100461.00;;;22.21;39.25
59411;BME280;45215;32.610;-115.482;2022-07-29T00:30:52;100462.41;;;22.11;36.63
59411;BME280;45215;32.610;-115.482;2022-07-29T00:33:18;100454.97;;;21.91;34.83
59411;BME280;45215;32.610;-115.482;2022-07-29T00:35:44;100449.50;;;21.84;36.46
59411;BME280;45215;32.610;-115.482;2022-07-29T00:38:16;100453.69;;;22.15;41.95
59411;BME280;45215;32.610;-115.482;2022-07-29T00:40:42;100448.94;;;22.17;37.20
59411;BME280;45215;32.610;-115.482;2022-07-29T00:43:08;100437.81;;;21.99;35.43
59411;BME280;45215;32.610;-115.482;2022-07-29T00:45:34;100439.72;;;21.83;34.78
59411;BME280;45215;32.610;-115.482;2022-07-29T00:48:00;100440.97;;;22.09;42.42
59411;BME280;45215;32.610;-115.482;2022-07-29T00:50:26;100442.34;;;22.26;38.58
59411;BME280;45215;32.610;-115.482;2022-07-29T00:52:52;100441.81;;;22.10;35.81
59411;BME280;45215;32.610;-115.482;2022-07-29T00:55:18;100440.00;;;21.89;34.51
59411;BME280;45215;32.610;-115.482;2022-07-29T00:57:44;100438.56;;;21.93;39.35
59411;BME280;45215;32.610;-115.482;2022-07-29T01:00:11;100437.34;;;22.23;40.04
59411;BME280;45215;32.610;-115.482;2022-07-29T01:02:37;100441.88;;;22.16;36.96
59411;BME280;45215;32.610;-115.482;2022-07-29T01:05:03;100439.66;;;21.98;34.77
59411;BME280;45215;32.610;-115.482;2022-07-29T01:07:30;100434.13;;;21.85;35.90
59411;BME280;45215;32.610;-115.482;2022-07-29T01:09:58;100444.78;;;22.21;42.17
59411;BME280;45215;32.610;-115.482;2022-07-29T01:12:24;100449.19;;;22.22;37.66
59411;BME280;45215;32.610;-115.482;2022-07-29T01:14:50;100445.94;;;22.05;35.06
59411;BME280;45215;32.610;-115.482;2022-07-29T01:17:28;100447.63;;;21.85;35.20
59411;BME280;45215;32.610;-115.482;2022-07-29T01:20:08;100453.94;;;22.20;43.13
59411;BME280;45215;32.610;-115.482;2022-07-29T01:30:11;100465.16;;;22.17;42.00
59411;BME280;45215;32.610;-115.482;2022-07-29T01:32:38;100454.44;;;22.31;38.05
59411;BME280;45215;32.610;-115.482;2022-07-29T01:35:06;100450.56;;;22.12;35.29
59411;BME280;45215;32.610;-115.482;2022-07-29T01:39:59;100463.63;;;22.08;41.50
59411;BME280;45215;32.610;-115.482;2022-07-29T01:42:41;100462.16;;;22.34;39.20
59411;BME280;45215;32.610;-115.482;2022-07-29T01:45:12;100467.19;;;22.15;35.71
59411;BME280;45215;32.610;-115.482;2022-07-29T01:50:14;100477.94;;;22.02;41.36
59411;BME280;45215;32.610;-115.482;2022-07-29T01:52:58;100478.75;;;22.31;39.11
59411;BME280;45215;32.610;-115.482;2022-07-29T01:55:25;100475.09;;;22.10;35.79
59411;BME280;45215;32.610;-115.482;2022-07-29T01:57:52;100488.59;;;21.89;34.40
59411;BME280;45215;32.610;-115.482;2022-07-29T02:00:17;100493.66;;;21.98;40.64
59411;BME280;45215;32.610;-115.482;2022-07-29T02:02:44;100493.13;;;22.38;40.18
59411;BME280;45215;32.610;-115.482;2022-07-29T02:05:12;100503.66;;;22.54;38.49
59411;BME280;45215;32.610;-115.482;2022-07-29T02:07:40;100501.00;;;22.33;35.60
59411;BME280;45215;32.610;-115.482;2022-07-29T02:10:06;100515.94;;;22.28;41.00
59411;BME280;45215;32.610;-115.482;2022-07-29T02:12:32;100512.00;;;22.59;41.46
59411;BME280;45215;32.610;-115.482;2022-07-29T02:14:59;100508.13;;;22.40;37.15
59411;BME280;45215;32.610;-115.482;2022-07-29T02:17:27;100513.53;;;22.12;35.17
59411;BME280;45215;32.610;-115.482;2022-07-29T02:19:57;100514.44;;;21.98;37.85
59411;BME280;45215;32.610;-115.482;2022-07-29T02:22:24;100512.28;;;22.36;41.98
59411;BME280;45215;32.610;-115.482;2022-07-29T02:24:52;100524.22;;;22.27;37.19
59411;BME280;45215;32.610;-115.482;2022-07-29T02:27:18;100516.97;;;21.99;35.05
59411;BME280;45215;32.610;-115.482;2022-07-29T02:29:45;100520.94;;;21.82;36.24
59411;BME280;45215;32.610;-115.482;2022-07-29T02:32:12;100536.22;;;22.18;43.06
59411;BME280;45215;32.610;-115.482;2022-07-29T02:34:39;100529.81;;;22.19;37.42
59411;BME280;45215;32.610;-115.482;2022-07-29T02:37:05;100531.03;;;21.95;35.31
59411;BME280;45215;32.610;-115.482;2022-07-29T02:39:34;100541.63;;;21.75;34.68
59411;BME280;45215;32.610;-115.482;2022-07-29T02:42:01;100546.06;;;22.04;42.31
59411;BME280;45215;32.610;-115.482;2022-07-29T02:44:29;100551.59;;;22.17;37.68
59411;BME280;45215;32.610;-115.482;2022-07-29T02:52:00;100557.41;;;21.93;41.87
59411;BME280;45215;32.610;-115.482;2022-07-29T02:56:55;100567.56;;;21.91;35.54
59411;BME280;45215;32.610;-115.482;2022-07-29T02:59:27;100571.25;;;21.68;34.25
59411;BME280;45215;32.610;-115.482;2022-07-29T03:01:55;100572.84;;;21.84;40.99
59411;BME280;45215;32.610;-115.482;2022-07-29T03:04:24;100574.19;;;22.10;38.44
59411;BME280;45215;32.610;-115.482;2022-07-29T03:06:50;100581.06;;;21.91;35.58
59411;BME280;45215;32.610;-115.482;2022-07-29T03:09:17;100575.44;;;21.71;33.74
59411;BME280;45215;32.610;-115.482;2022-07-29T03:11:43;100584.16;;;21.73;38.12
59411;BME280;45215;32.610;-115.482;2022-07-29T03:14:10;100587.25;;;22.06;39.07
59411;BME280;45215;32.610;-115.482;2022-07-29T03:16:36;100591.88;;;21.91;35.56
59411;BME280;45215;32.610;-115.482;2022-07-29T03:19:03;100598.03;;;21.70;33.78
59411;BME280;45215;32.610;-115.482;2022-07-29T03:21:29;100612.13;;;21.65;37.10
59411;BME280;45215;32.610;-115.482;2022-07-29T03:23:55;100610.19;;;21.95;39.75
59411;BME280;45215;32.610;-115.482;2022-07-29T03:26:21;100615.31;;;21.90;35.66
59411;BME280;45215;32.610;-115.482;2022-07-29T03:28:47;100609.66;;;21.70;33.79
59411;BME280;45215;32.610;-115.482;2022-07-29T03:31:12;100620.78;;;21.60;36.00
59411;BME280;45215;32.610;-115.482;2022-07-29T03:33:38;100619.50;;;21.93;40.69
59411;BME280;45215;32.610;-115.482;2022-07-29T03:36:04;100623.63;;;21.89;36.17
59411;BME280;45215;32.610;-115.482;2022-07-29T03:38:30;100620.84;;;21.67;34.00
59411;BME280;45215;32.610;-115.482;2022-07-29T03:41:01;100621.53;;;21.54;34.80
59411;BME280;45215;32.610;-115.482;2022-07-29T03:43:30;100631.09;;;21.87;41.39
59411;BME280;45215;32.610;-115.482;2022-07-29T03:45:56;100633.00;;;21.93;36.53
59411;BME280;45215;32.610;-115.482;2022-07-29T03:48:23;100638.53;;;21.70;34.63
59411;BME280;45215;32.610;-115.482;2022-07-29T03:50:49;100633.56;;;21.52;34.99
59411;BME280;45215;32.610;-115.482;2022-07-29T03:53:16;100635.56;;;21.79;41.34
59411;BME280;45215;32.610;-115.482;2022-07-29T03:55:45;100645.31;;;21.95;37.24
59411;BME280;45215;32.610;-115.482;2022-07-29T03:58:12;100631.28;;;21.70;34.90
59411;BME280;45215;32.610;-115.482;2022-07-29T04:00:38;100639.78;;;21.52;35.30
59411;BME280;45215;32.610;-115.482;2022-07-29T04:03:05;100651.81;;;21.86;42.11
59411;BME280;45215;32.610;-115.482;2022-07-29T04:05:31;100641.59;;;21.96;37.20
59411;BME280;45215;32.610;-115.482;2022-07-29T04:07:57;100639.84;;;21.74;35.08
59411;BME280;45215;32.610;-115.482;2022-07-29T04:10:23;100639.41;;;21.55;35.61
59411;BME280;45215;32.610;-115.482;2022-07-29T04:12:49;100653.03;;;21.83;42.04
59411;BME280;45215;32.610;-115.482;2022-07-29T04:15:15;100654.44;;;21.94;37.59
59411;BME280;45215;32.610;-115.482;2022-07-29T04:17:40;100647.47;;;21.70;34.98
59411;BME280;45215;32.610;-115.482;2022-07-29T04:20:06;100643.13;;;21.54;35.83
59411;BME280;45215;32.610;-115.482;2022-07-29T04:22:32;100628.19;;;21.88;42.32
59411;BME280;45215;32.610;-115.482;2022-07-29T04:24:58;100635.09;;;21.91;36.94
59411;BME280;45215;32.610;-115.482;2022-07-29T04:27:24;100639.56;;;21.69;34.96
59411;BME280;45215;32.610;-115.482;2022-07-29T04:29:50;100649.81;;;21.58;36.41
59411;BME280;45215;32.610;-115.482;2022-07-29T04:32:16;100655.28;;;21.95;42.04
59411;BME280;45215;32.610;-115.482;2022-07-29T04:34:42;100655.84;;;21.90;37.11
59411;BME280;45215;32.610;-115.482;2022-07-29T04:37:08;100658.84;;;21.66;34.43
59411;BME280;45215;32.610;-115.482;2022-07-29T04:39:34;100646.94;;;21.60;38.37
59411;BME280;45215;32.610;-115.482;2022-07-29T04:41:59;100646.13;;;21.96;41.42
59411;BME280;45215;32.610;-115.482;2022-07-29T04:44:25;100643.38;;;21.89;36.55
59411;BME280;45215;32.610;-115.482;2022-07-29T04:46:52;100648.22;;;21.64;34.50
59411;BME280;45215;32.610;-115.482;2022-07-29T04:49:17;100650.81;;;21.72;40.12
59411;BME280;45215;32.610;-115.482;2022-07-29T04:51:43;100652.19;;;21.98;39.35
59411;BME280;45215;32.610;-115.482;2022-07-29T04:54:09;100654.63;;;21.78;35.74
59411;BME280;45215;32.610;-115.482;2022-07-29T04:56:34;100651.03;;;21.56;35.25
59411;BME280;45215;32.610;-115.482;2022-07-29T04:59:00;100656.31;;;21.79;42.32
59411;BME280;45215;32.610;-115.482;2022-07-29T05:01:26;100660.28;;;21.98;38.42
59411;BME280;45215;32.610;-115.482;2022-07-29T05:03:52;100668.50;;;21.75;35.41
59411;BME280;45215;32.610;-115.482;2022-07-29T05:06:18;100675.97;;;21.58;37.05
59411;BME280;45215;32.610;-115.482;2022-07-29T05:08:43;100664.78;;;21.91;42.61
59411;BME280;45215;32.610;-115.482;2022-07-29T05:11:09;100664.31;;;21.87;37.06
59411;BME280;45215;32.610;-115.482;2022-07-29T05:13:35;100668.81;;;21.65;34.73
59411;BME280;45215;32.610;-115.482;2022-07-29T05:16:01;100666.78;;;21.52;36.63
59411;BME280;45215;32.610;-115.482;2022-07-29T05:18:27;100677.66;;;21.89;41.72
59411;BME280;45215;32.610;-115.482;2022-07-29T05:20:53;100672.53;;;21.79;36.68
59411;BME280;45215;32.610;-115.482;2022-07-29T05:23:19;100673.50;;;21.56;34.59
59411;BME280;45215;32.610;-115.482;2022-07-29T05:25:45;100672.16;;;21.52;39.14
59411;BME280;45215;32.610;-115.482;2022-07-29T05:28:11;100673.91;;;21.90;42.83
59411;BME280;45215;32.610;-115.482;2022-07-29T05:30:37;100665.72;;;21.83;37.13
59411;BME280;45215;32.610;-115.482;2022-07-29T05:33:03;100670.22;;;21.61;34.66
59411;BME280;45215;32.610;-115.482;2022-07-29T05:35:29;100668.16;;;21.63;39.83
59411;BME280;45215;32.610;-115.482;2022-07-29T05:37:55;100671.47;;;21.95;40.54
59411;BME280;45215;32.610;-115.482;2022-07-29T05:40:20;100670.66;;;21.79;36.30
59411;BME280;45215;32.610;-115.482;2022-07-29T05:42:46;100662.69;;;21.56;34.44
59411;BME280;45215;32.610;-115.482;2022-07-29T05:45:12;100669.72;;;21.72;41.96
59411;BME280;45215;32.610;-115.482;2022-07-29T05:47:38;100664.69;;;21.99;40.03
59411;BME280;45215;32.610;-115.482;2022-07-29T05:50:04;100667.47;;;21.76;36.03
59411;BME280;45215;32.610;-115.482;2022-07-29T05:52:30;100663.25;;;21.52;36.43
59411;BME280;45215;32.610;-115.482;2022-07-29T05:54:55;100665.53;;;21.84;43.08
59411;BME280;45215;32.610;-115.482;2022-07-29T05:57:22;100667.50;;;21.91;38.15
59411;BME280;45215;32.610;-115.482;2022-07-29T05:59:48;100676.91;;;21.65;35.68
59411;BME280;45215;32.610;-115.482;2022-07-29T06:02:14;100672.34;;;21.66;40.87
59411;BME280;45215;32.610;-115.482;2022-07-29T06:04:40;100666.53;;;21.98;41.00
59411;BME280;45215;32.610;-115.482;2022-07-29T06:07:06;100659.66;;;21.81;36.81
59411;BME280;45215;32.610;-115.482;2022-07-29T06:09:32;100660.00;;;21.56;35.53
59411;BME280;45215;32.610;-115.482;2022-07-29T06:11:58;100659.84;;;21.79;42.38
59411;BME280;45215;32.610;-115.482;2022-07-29T06:14:24;100664.69;;;21.99;39.42
59411;BME280;45215;32.610;-115.482;2022-07-29T06:16:50;100655.84;;;21.75;36.00
59411;BME280;45215;32.610;-115.482;2022-07-29T06:19:16;100666.59;;;21.54;36.31
59411;BME280;45215;32.610;-115.482;2022-07-29T06:21:42;100663.84;;;21.83;43.22
59411;BME280;45215;32.610;-115.482;2022-07-29T06:24:10;100668.59;;;21.96;38.69
59411;BME280;45215;32.610;-115.482;2022-07-29T06:26:35;100666.38;;;21.70;35.82
59411;BME280;45215;32.610;-115.482;2022-07-29T06:29:01;100672.91;;;21.61;39.43
59411;BME280;45215;32.610;-115.482;2022-07-29T06:31:27;100669.44;;;21.97;43.35
59411;BME280;45215;32.610;-115.482;2022-07-29T06:33:53;100675.97;;;21.88;37.63
59411;BME280;45215;32.610;-115.482;2022-07-29T06:36:18;100674.59;;;21.62;35.51
59411;BME280;45215;32.610;-115.482;2022-07-29T06:38:44;100685.00;;;21.80;42.42
59411;BME280;45215;32.610;-115.482;2022-07-29T06:41:10;100675.09;;;22.02;39.94
59411;BME280;45215;32.610;-115.482;2022-07-29T06:43:38;100680.81;;;21.77;36.51
59411;BME280;45215;32.610;-115.482;2022-07-29T06:46:05;100677.13;;;21.49;35.41
59411;BME280;45215;32.610;-115.482;2022-07-29T06:48:31;100686.13;;;21.71;42.30
59411;BME280;45215;32.610;-115.482;2022-07-29T06:50:57;100679.03;;;21.99;40.37
59411;BME280;45215;32.610;-115.482;2022-07-29T06:53:23;100685.16;;;21.78;36.92
59411;BME280;45215;32.610;-115.482;2022-07-29T06:55:48;100688.94;;;21.63;37.83
59411;BME280;45215;32.610;-115.482;2022-07-29T06:58:14;100693.84;;;21.89;43.32
59411;BME280;45215;32.610;-115.482;2022-07-29T07:00:43;100693.84;;;21.89;38.46
59411;BME280;45215;32.610;-115.482;2022-07-29T07:03:10;100696.00;;;21.64;35.75
59411;BME280;45215;32.610;-115.482;2022-07-29T07:05:36;100698.59;;;21.72;42.29
59411;BME280;45215;32.610;-115.482;2022-07-29T07:08:02;100702.50;;;21.99;40.83
59411;BME280;45215;32.610;-115.482;2022-07-29T07:10:28;100703.44;;;21.76;36.89
59411;BME280;45215;32.610;-115.482;2022-07-29T07:12:54;100703.63;;;21.60;37.27
59411;BME280;45215;32.610;-115.482;2022-07-29T07:15:20;100705.69;;;21.88;43.60
59411;BME280;45215;32.610;-115.482;2022-07-29T07:17:48;100701.94;;;21.89;38.54
59411;BME280;45215;32.610;-115.482;2022-07-29T07:20:15;100710.69;;;21.61;36.24
59411;BME280;45215;32.610;-115.482;2022-07-29T07:22:41;100713.69;;;21.66;41.38
59411;BME280;45215;32.610;-115.482;2022-07-29T07:25:07;100726.81;;;21.99;41.49
59411;BME280;45215;32.610;-115.482;2022-07-29T07:27:33;100720.25;;;21.78;37.67
59411;BME280;45215;32.610;-115.482;2022-07-29T07:29:58;100716.75;;;21.63;38.19
59411;BME280;45215;32.610;-115.482;2022-07-29T07:32:24;100725.03;;;21.91;44.35
59411;BME280;45215;32.610;-115.482;2022-07-29T07:34:50;100722.13;;;21.93;38.67
59411;BME280;45215;32.610;-115.482;2022-07-29T07:37:16;100722.81;;;21.65;37.28
59411;BME280;45215;32.610;-115.482;2022-07-29T07:39:44;100730.69;;;21.81;43.81
59411;BME280;45215;32.610;-115.482;2022-07-29T07:42:10;100731.34;;;21.98;40.66
59411;BME280;45215;32.610;-115.482;2022-07-29T07:44:38;100733.88;;;21.70;37.13
59411;BME280;45215;32.610;-115.482;2022-07-29T07:47:04;100740.59;;;21.74;42.66
59411;BME280;45215;32.610;-115.482;2022-07-29T07:49:30;100736.38;;;22.01;42.31
59411;BME280;45215;32.610;-115.482;2022-07-29T07:51:56;100728.56;;;21.77;37.81
59411;BME280;45215;32.610;-115.482;2022-07-29T07:54:21;100737.59;;;21.69;42.73
59411;BME280;45215;32.610;-115.482;2022-07-29T07:56:47;100742.63;;;22.02;44.59
59411;BME280;45215;32.610;-115.482;2022-07-29T07:59:16;100740.94;;;21.86;38.59
59411;BME280;45215;32.610;-115.482;2022-07-29T08:01:42;100738.72;;;21.60;37.89
59411;BME280;45215;32.610;-115.482;2022-07-29T08:04:08;100744.50;;;21.87;45.12
59411;BME280;45215;32.610;-115.482;2022-07-29T08:06:34;100739.28;;;22.00;40.60
59411;BME280;45215;32.610;-115.482;2022-07-29T08:09:01;100743.66;;;21.71;37.69
59411;BME280;45215;32.610;-115.482;2022-07-29T08:11:27;100745.31;;;21.72;43.40
59411;BME280;45215;32.610;-115.482;2022-07-29T08:13:54;100750.53;;;22.03;43.65
59411;BME280;45215;32.610;-115.482;2022-07-29T08:16:20;100742.34;;;21.82;38.92
59411;BME280;45215;32.610;-115.482;2022-07-29T08:18:46;100749.31;;;21.61;39.53
59411;BME280;45215;32.610;-115.482;2022-07-29T08:21:12;100753.91;;;21.91;45.44
59411;BME280;45215;32.610;-115.482;2022-07-29T08:23:38;100755.75;;;21.90;39.79
59411;BME280;45215;32.610;-115.482;2022-07-29T08:26:10;100764.97;;;21.66;39.35
59411;BME280;45215;32.610;-115.482;2022-07-29T08:28:39;100764.34;;;21.94;45.80
59411;BME280;45215;32.610;-115.482;2022-07-29T08:31:05;100767.56;;;22.04;41.08
59411;BME280;45215;32.610;-115.482;2022-07-29T08:33:32;100766.75;;;21.74;37.79
59411;BME280;45215;32.610;-115.482;2022-07-29T08:35:58;100767.88;;;21.79;43.18
59411;BME280;45215;32.610;-115.482;2022-07-29T08:38:23;100762.44;;;22.09;43.14
59411;BME280;45215;32.610;-115.482;2022-07-29T08:40:51;100749.25;;;21.84;38.67
59411;BME280;45215;32.610;-115.482;2022-07-29T08:43:18;100744.31;;;21.73;42.13
59411;BME280;45215;32.610;-115.482;2022-07-29T08:45:45;100742.25;;;22.05;45.89
59411;BME280;45215;32.610;-115.482;2022-07-29T08:48:12;100733.31;;;21.90;39.60
59411;BME280;45215;32.610;-115.482;2022-07-29T08:50:38;100727.56;;;21.63;39.76
59411;BME280;45215;32.610;-115.482;2022-07-29T08:53:05;100729.63;;;21.91;45.98
59411;BME280;45215;32.610;-115.482;2022-07-29T08:55:32;100727.81;;;21.98;41.11
59411;BME280;45215;32.610;-115.482;2022-07-29T08:57:58;100721.13;;;21.64;38.37
59411;BME280;45215;32.610;-115.482;2022-07-29T09:00:24;100727.25;;;21.73;45.14
59411;BME280;45215;32.610;-115.482;2022-07-29T09:02:51;100733.66;;;22.01;44.02
59411;BME280;45215;32.610;-115.482;2022-07-29T09:05:21;100724.75;;;21.71;39.50
59411;BME280;45215;32.610;-115.482;2022-07-29T09:07:48;100729.69;;;21.68;45.00
59411;BME280;45215;32.610;-115.482;2022-07-29T09:10:14;100738.91;;;22.03;46.43
59411;BME280;45215;32.610;-115.482;2022-07-29T09:12:40;100731.34;;;21.83;40.45
59411;BME280;45215;32.610;-115.482;2022-07-29T09:15:05;100735.38;;;21.58;42.11
59411;BME280;45215;32.610;-115.482;2022-07-29T09:17:45;100745.81;;;21.91;47.43
59411;BME280;45215;32.610;-115.482;2022-07-29T09:20:15;100737.06;;;21.89;40.97
59411;BME280;45215;32.610;-115.482;2022-07-29T09:22:41;100746.53;;;21.55;40.48
59411;BME280;45215;32.610;-115.482;2022-07-29T09:25:07;100745.88;;;21.82;46.57
59411;BME280;45215;32.610;-115.482;2022-07-29T09:27:33;100745.06;;;21.97;42.36
59411;BME280;45215;32.610;-115.482;2022-07-29T09:30:00;100742.63;;;21.57;39.36
59411;BME280;45215;32.610;-115.482;2022-07-29T09:32:26;100747.66;;;21.75;46.57
59411;BME280;45215;32.610;-115.482;2022-07-29T09:37:37;100740.75;;;21.58;39.24
59411;BME280;45215;32.610;-115.482;2022-07-29T09:40:10;100738.53;;;21.76;46.34
59411;BME280;45215;32.610;-115.482;2022-07-29T09:42:36;100743.63;;;22.01;43.36
59411;BME280;45215;32.610;-115.482;2022-07-29T09:45:02;100741.25;;;21.76;39.64
59411;BME280;45215;32.610;-115.482;2022-07-29T09:47:39;100742.34;;;21.67;43.65
59411;BME280;45215;32.610;-115.482;2022-07-29T09:50:06;100741.59;;;22.03;46.25
59411;BME280;45215;32.610;-115.482;2022-07-29T09:52:32;100739.81;;;21.80;40.15
59411;BME280;45215;32.610;-115.482;2022-07-29T09:55:09;100748.84;;;21.73;44.18
59411;BME280;45215;32.610;-115.482;2022-07-29T09:57:35;100750.81;;;22.09;48.23
59411;BME280;45215;32.610;-115.482;2022-07-29T10:00:03;100746.06;;;21.96;41.41
59411;BME280;45215;32.610;-115.482;2022-07-29T10:02:32;100733.13;;;21.61;41.40
59411;BME280;45215;32.610;-115.482;2022-07-29T10:04:58;100750.00;;;21.93;47.38
59411;BME280;45215;32.610;-115.482;2022-07-29T10:07:25;100741.22;;;22.06;43.13
59411;BME280;45215;32.610;-115.482;2022-07-29T10:09:52;100736.22;;;21.73;39.48
59411;BME280;45215;32.610;-115.482;2022-07-29T10:12:19;100742.16;;;21.83;46.31
59411;BME280;45215;32.610;-115.482;2022-07-29T10:14:45;100746.06;;;22.11;45.13
59411;BME280;45215;32.610;-115.482;2022-07-29T10:17:11;100746.88;;;21.81;40.03
59411;BME280;45215;32.610;-115.482;2022-07-29T10:19:37;100746.34;;;21.71;44.80
59411;BME280;45215;32.610;-115.482;2022-07-29T10:22:05;100764.69;;;22.05;47.07
59411;BME280;45215;32.610;-115.482;2022-07-29T10:24:31;100767.81;;;21.88;40.78
59411;BME280;45215;32.610;-115.482;2022-07-29T10:26:58;100789.94;;;21.68;43.77
59411;BME280;45215;32.610;-115.482;2022-07-29T10:29:24;100792.47;;;21.99;47.76
59411;BME280;45215;32.610;-115.482;2022-07-29T10:34:32;100808.53;;;21.63;42.59
59411;BME280;45215;32.610;-115.482;2022-07-29T10:37:05;100822.56;;;21.96;47.63
59411;BME280;45215;32.610;-115.482;2022-07-29T10:42:19;100843.81;;;21.61;43.27
59411;BME280;45215;32.610;-115.482;2022-07-29T10:44:46;100852.44;;;21.95;48.16
59411;BME280;45215;32.610;-115.482;2022-07-29T10:47:19;100853.09;;;21.97;41.84
59411;BME280;45215;32.610;-115.482;2022-07-29T10:50:02;100852.41;;;21.65;42.73
59411;BME280;45215;32.610;-115.482;2022-07-29T10:53:10;100862.50;;;22.01;48.07
59411;BME280;45215;32.610;-115.482;2022-07-29T10:55:33;100851.56;;;21.79;40.59
59411;BME280;45215;32.610;-115.482;2022-07-29T11:00:44;100846.56;;;22.06;46.70
59411;BME280;45215;32.610;-115.482;2022-07-29T11:03:28;100833.69;;;21.78;40.77
59411;BME280;45215;32.610;-115.482;2022-07-29T11:05:56;100841.53;;;21.73;46.29
59411;BME280;45215;32.610;-115.482;2022-07-29T11:08:22;100838.47;;;22.06;47.37
59411;BME280;45215;32.610;-115.482;2022-07-29T11:10:49;100822.50;;;21.81;40.61
59411;BME280;45215;32.610;-115.482;2022-07-29T11:13:44;100819.81;;;21.67;45.40
59411;BME280;45215;32.610;-115.482;2022-07-29T11:16:01;100814.72;;;22.01;46.24
59411;BME280;45215;32.610;-115.482;2022-07-29T11:18:27;100793.91;;;21.72;40.35
59411;BME280;45215;32.610;-115.482;2022-07-29T11:20:53;100796.53;;;21.66;45.62
59411;BME280;45215;32.610;-115.482;2022-07-29T11:31:43;100790.41;;;22.01;47.35
59411;BME280;45215;32.610;-115.482;2022-07-29T11:34:24;100787.88;;;21.70;40.05
59411;BME280;45215;32.610;-115.482;2022-07-29T11:44:56;100764.69;;;21.76;46.73
59411;BME280;45215;32.610;-115.482;2022-07-29T11:47:23;100768.78;;;22.01;44.68
59411;BME280;45215;32.610;-115.482;2022-07-29T11:49:52;100766.25;;;21.70;40.07
59411;BME280;45215;32.610;-115.482;2022-07-29T11:52:18;100770.09;;;21.76;46.41
59411;BME280;45215;32.610;-115.482;2022-07-29T11:54:44;100757.16;;;22.01;45.09
59411;BME280;45215;32.610;-115.482;2022-07-29T11:57:12;100764.81;;;21.68;40.11
59411;BME280;45215;32.610;-115.482;2022-07-29T11:59:39;100775.03;;;21.72;46.57
59411;BME280;45215;32.610;-115.482;2022-07-29T12:02:05;100769.66;;;22.02;47.20
59411;BME280;45215;32.610;-115.482;2022-07-29T12:04:31;100758.94;;;21.79;41.08
59411;BME280;45215;32.610;-115.482;2022-07-29T12:06:56;100765.25;;;21.71;46.17
59411;BME280;45215;32.610;-115.482;2022-07-29T12:09:23;100767.97;;;22.01;47.80
59411;BME280;45215;32.610;-115.482;2022-07-29T12:11:58;100761.44;;;21.80;40.95
59411;BME280;45215;32.610;-115.482;2022-07-29T12:14:31;100763.31;;;21.65;45.34
59411;BME280;45215;32.610;-115.482;2022-07-29T12:16:57;100760.44;;;21.96;48.17
59411;BME280;45215;32.610;-115.482;2022-07-29T12:19:23;100746.88;;;21.81;41.59
59411;BME280;45215;32.610;-115.482;2022-07-29T12:21:50;100767.66;;;21.66;44.60
59411;BME280;45215;32.610;-115.482;2022-07-29T12:24:16;100769.38;;;21.97;48.33
59411;BME280;45215;32.610;-115.482;2022-07-29T12:26:49;100769.81;;;21.86;41.44
59411;BME280;45215;32.610;-115.482;2022-07-29T12:29:16;100778.19;;;21.61;45.34
59411;BME280;45215;32.610;-115.482;2022-07-29T12:31:43;100786.34;;;21.91;48.61
59411;BME280;45215;32.610;-115.482;2022-07-29T12:34:12;100786.13;;;21.92;42.44
59411;BME280;45215;32.610;-115.482;2022-07-29T12:36:38;100794.38;;;21.61;43.64
59411;BME280;45215;32.610;-115.482;2022-07-29T12:39:04;100802.91;;;21.88;47.93
59411;BME280;45215;32.610;-115.482;2022-07-29T12:41:30;100808.69;;;21.99;44.09
59411;BME280;45215;32.610;-115.482;2022-07-29T12:43:56;100809.75;;;21.60;42.50
59411;BME280;45215;32.610;-115.482;2022-07-29T12:46:22;100818.78;;;21.82;48.26
59411;BME280;45215;32.610;-115.482;2022-07-29T12:48:51;100819.94;;;22.03;44.59
59411;BME280;45215;32.610;-115.482;2022-07-29T12:54:14;100828.28;;;21.78;46.88
59411;BME280;45215;32.610;-115.482;2022-07-29T12:56:41;100826.84;;;22.05;45.48
59411;BME280;45215;32.610;-115.482;2022-07-29T12:59:11;100819.34;;;21.63;40.39
59411;BME280;45215;32.610;-115.482;2022-07-29T13:01:37;100823.44;;;21.59;47.40
59411;BME280;45215;32.610;-115.482;2022-07-29T13:04:02;100826.63;;;21.92;47.85
59411;BME280;45215;32.610;-115.482;2022-07-29T13:06:45;100823.63;;;21.72;41.66
59411;BME280;45215;32.610;-115.482;2022-07-29T13:09:14;100825.56;;;21.64;47.02
59411;BME280;45215;32.610;-115.482;2022-07-29T13:14:10;100841.16;;;21.76;41.64